Time;durP1;ratioP1;P1;durP2;ratioP2;P2;SDS_P1;SDS_P2;PMS_P1;PMS_P2;Temp;Humidity;BMP_temperature;BMP_pressure;BME280_temperature;BME280_humidity;BME280_pressure;Samples;Min_cycle;Max_cycle;Signal;HPM_P1;HPM_P2
2022/03/16 00:01:58;;;;;;;37.22;25.63;;;;;;;3.92;83.79;102419.19;5053109;28;20040;-87
2022/03/16 00:04:23;;;;;;;43.17;28.00;;;;;;;3.91;83.49;102413.91;5071040;28;20395;-87
2022/03/16 00:06:49;;;;;;;37.70;25.80;;;;;;;3.90;84.10;102413.00;5036383;28;20041;-87
2022/03/16 00:09:14;;;;;;;44.97;27.15;;;;;;;3.87;83.88;102416.44;5020142;28;20036;-87
2022/03/16 00:11:40;;;;;;;44.58;28.05;;;;;;;3.79;84.57;102402.22;5071209;28;20103;-87
2022/03/16 00:14:05;;;;;;;41.85;27.58;;;;;;;3.83;85.38;102411.97;5050936;28;20074;-87
2022/03/16 00:16:31;;;;;;;41.53;24.95;;;;;;;3.79;84.73;102409.19;5083826;28;20036;-87
2022/03/16 00:18:56;;;;;;;36.28;26.08;;;;;;;3.76;85.05;102415.22;5063628;28;20112;-87
2022/03/16 00:21:22;;;;;;;36.65;25.52;;;;;;;3.72;84.56;102415.97;5034369;28;20031;-87
2022/03/16 00:23:48;;;;;;;37.88;26.33;;;;;;;3.70;84.13;102415.03;5072985;28;20063;-87
2022/03/16 00:26:14;;;;;;;41.67;28.02;;;;;;;3.66;85.06;102414.03;5039299;28;20040;-87
2022/03/16 00:28:40;;;;;;;40.50;27.17;;;;;;;3.65;85.39;102408.75;5055568;28;20028;-87
2022/03/16 00:31:05;;;;;;;42.30;26.02;;;;;;;3.63;85.80;102415.66;5072297;28;20031;-87
2022/03/16 00:33:33;;;;;;;42.10;25.77;;;;;;;3.61;86.16;102415.63;5072625;28;20364;-87
2022/03/16 00:35:59;;;;;;;37.72;25.55;;;;;;;3.58;86.13;102412.88;5072776;28;20479;-87
2022/03/16 00:38:24;;;;;;;41.00;25.30;;;;;;;3.54;85.05;102418.88;5072588;28;20047;-87
2022/03/16 00:40:50;;;;;;;37.03;25.20;;;;;;;3.53;85.43;102419.72;5076027;28;20097;-87
2022/03/16 00:43:16;;;;;;;36.70;25.33;;;;;;;3.50;85.27;102424.84;5094486;28;20058;-87
2022/03/16 00:45:42;;;;;;;35.72;25.13;;;;;;;3.50;85.43;102426.59;5060403;28;20037;-87
2022/03/16 00:48:08;;;;;;;40.00;25.20;;;;;;;3.49;86.25;102424.78;5073836;28;20182;-87
2022/03/16 00:50:34;;;;;;;37.65;25.33;;;;;;;3.49;85.72;102432.66;5056466;28;20035;-87
2022/03/16 00:53:00;;;;;;;32.25;22.63;;;;;;;3.47;85.48;102422.16;5055945;28;20079;-87
2022/03/16 00:55:26;;;;;;;33.50;23.10;;;;;;;3.47;85.18;102421.25;5072375;28;20025;-86
2022/03/16 00:57:53;;;;;;;35.58;24.48;;;;;;;3.45;85.66;102419.47;5055677;28;20143;-87
2022/03/16 01:00:19;;;;;;;36.30;24.60;;;;;;;3.47;85.82;102416.91;5056305;28;20432;-87
2022/03/16 01:02:44;;;;;;;38.72;24.48;;;;;;;3.47;84.93;102411.66;5055972;28;20040;-88
2022/03/16 01:05:10;;;;;;;34.83;25.33;;;;;;;3.48;85.69;102420.41;5073943;28;20140;-86
2022/03/16 01:07:36;;;;;;;35.53;23.83;;;;;;;3.44;86.31;102408.97;5072314;28;20045;-87
2022/03/16 01:10:03;;;;;;;35.28;23.73;;;;;;;3.45;86.22;102411.59;5055785;28;20040;-86
2022/03/16 01:12:30;;;;;;;36.72;24.95;;;;;;;3.44;86.70;102412.47;5069639;28;20324;-87
2022/03/16 01:14:55;;;;;;;40.58;24.50;;;;;;;3.45;86.99;102409.00;5075580;28;20083;-87
2022/03/16 01:17:21;;;;;;;39.15;26.95;;;;;;;3.43;87.08;102402.81;5075136;28;20063;-86
2022/03/16 01:19:47;;;;;;;39.40;25.42;;;;;;;3.45;87.04;102402.88;5075563;28;20337;-86
2022/03/16 01:22:13;;;;;;;37.13;26.25;;;;;;;3.45;87.11;102406.38;5092144;28;20047;-87
2022/03/16 01:24:38;;;;;;;37.28;26.75;;;;;;;3.47;87.85;102398.56;5058529;28;20044;-87
2022/03/16 01:27:04;;;;;;;36.83;24.55;;;;;;;3.46;87.13;102402.00;5041882;28;20036;-86
2022/03/16 01:29:30;;;;;;;39.78;25.23;;;;;;;3.47;86.93;102400.31;5075197;28;20505;-87
2022/03/16 01:31:56;;;;;;;33.88;23.83;;;;;;;3.46;87.09;102396.78;5071669;28;20028;-87
2022/03/16 01:34:24;;;;;;;37.80;23.40;;;;;;;3.47;87.18;102402.94;5038689;28;20388;-86
2022/03/16 01:36:49;;;;;;;38.22;24.50;;;;;;;3.46;87.60;102394.16;5054742;28;20132;-87
2022/03/16 01:39:18;;;;;;;37.17;25.13;;;;;;;3.49;87.78;102393.38;5071675;28;20095;-86
2022/03/16 01:41:44;;;;;;;38.25;24.85;;;;;;;3.49;88.08;102391.66;5054991;28;20113;-86
2022/03/16 01:44:10;;;;;;;37.08;23.38;;;;;;;3.51;87.89;102389.06;5075025;28;20043;-86
2022/03/16 01:46:36;;;;;;;34.42;24.65;;;;;;;3.50;87.82;102382.06;5074556;28;20071;-87
2022/03/16 01:49:03;;;;;;;37.85;22.45;;;;;;;3.50;87.33;102380.34;5058037;28;20047;-86
2022/03/16 01:51:30;;;;;;;31.70;22.48;;;;;;;3.49;87.22;102378.56;5058015;28;20445;-86
2022/03/16 01:53:57;;;;;;;32.95;23.55;;;;;;;3.46;87.61;102386.31;5074175;28;20035;-86
2022/03/16 01:56:22;;;;;;;30.17;22.48;;;;;;;3.45;87.67;102374.94;5091248;28;20052;-86
2022/03/16 01:58:48;;;;;;;35.13;23.00;;;;;;;3.45;88.04;102379.31;5057808;28;20407;-86
2022/03/16 02:01:15;;;;;;;28.60;21.33;;;;;;;3.44;87.53;102367.06;5074257;28;20105;-86
2022/03/16 02:03:41;;;;;;;34.15;22.88;;;;;;;3.43;87.89;102362.63;5041001;28;20472;-86
2022/03/16 02:06:08;;;;;;;30.05;22.48;;;;;;;3.41;87.41;102360.00;5057664;28;20036;-86
2022/03/16 02:08:36;;;;;;;29.15;21.48;;;;;;;3.40;87.20;102360.81;5074589;28;20145;-86
2022/03/16 02:11:02;;;;;;;29.92;20.38;;;;;;;3.37;86.90;102359.84;5057004;28;20069;-86
2022/03/16 02:13:28;;;;;;;28.98;21.95;;;;;;;3.37;87.16;102363.34;5055624;28;20119;-86
2022/03/16 02:15:53;;;;;;;33.10;21.45;;;;;;;3.36;86.82;102363.28;5091547;28;20313;-86
2022/03/16 02:18:19;;;;;;;30.08;20.05;;;;;;;3.32;86.98;102353.56;5081548;28;20136;-86
2022/03/16 02:20:49;;;;;;;29.67;20.50;;;;;;;3.29;87.32;102356.97;5053763;28;20048;-86
2022/03/16 02:23:15;;;;;;;28.95;20.55;;;;;;;3.30;86.53;102350.91;5053760;28;20043;-86
2022/03/16 02:25:50;;;;;;;30.48;19.77;;;;;;;3.30;87.02;102350.91;5037012;28;20044;-86
2022/03/16 02:28:15;;;;;;;29.00;20.10;;;;;;;3.25;87.18;102338.50;5053202;28;20093;-86
2022/03/16 02:30:41;;;;;;;28.20;19.35;;;;;;;3.28;86.57;102339.47;5053816;28;20109;-86
2022/03/16 02:33:07;;;;;;;30.50;19.80;;;;;;;3.30;87.40;102340.41;5036747;28;20360;-86
2022/03/16 02:35:32;;;;;;;28.10;19.98;;;;;;;3.28;87.64;102336.84;5053998;28;20106;-86
2022/03/16 02:37:58;;;;;;;29.25;20.35;;;;;;;3.28;87.18;102344.72;5071606;28;20441;-86
2022/03/16 02:40:24;;;;;;;29.30;20.65;;;;;;;3.28;87.70;102339.47;5037268;28;20139;-87
2022/03/16 02:42:51;;;;;;;29.52;19.60;;;;;;;3.26;87.89;102333.28;5036962;28;20417;-86
2022/03/16 02:45:17;;;;;;;27.27;18.90;;;;;;;3.31;88.06;102344.81;5062817;28;20063;-86
2022/03/16 02:47:43;;;;;;;27.42;18.20;;;;;;;3.33;88.07;102339.63;5071671;28;20063;-87
2022/03/16 02:50:09;;;;;;;26.08;18.48;;;;;;;3.33;88.82;102343.13;5054187;28;20040;-86
2022/03/16 02:52:35;;;;;;;28.27;18.88;;;;;;;3.37;89.36;102337.16;5053536;28;20048;-86
2022/03/16 02:55:01;;;;;;;28.63;20.48;;;;;;;3.39;89.39;102342.47;5070428;28;20387;-86
2022/03/16 02:57:27;;;;;;;27.92;18.50;;;;;;;3.36;88.91;102345.88;5069583;28;20522;-85
2022/03/16 02:59:53;;;;;;;28.33;18.70;;;;;;;3.39;89.40;102343.34;5070073;28;20063;-86
2022/03/16 03:02:18;;;;;;;28.02;20.15;;;;;;;3.40;89.79;102346.84;5068999;28;20456;-86
2022/03/16 03:04:44;;;;;;;24.85;18.35;;;;;;;3.40;89.03;102341.59;5069822;28;20131;-86
2022/03/16 03:07:10;;;;;;;28.77;18.65;;;;;;;3.40;88.84;102344.22;5069800;28;20031;-86
2022/03/16 03:09:36;;;;;;;29.77;18.85;;;;;;;3.37;88.35;102347.63;5036704;28;20044;-86
2022/03/16 03:12:03;;;;;;;28.52;18.58;;;;;;;3.36;88.73;102340.63;5059484;28;20494;-86
2022/03/16 03:14:29;;;;;;;30.20;19.95;;;;;;;3.35;89.36;102324.84;5046990;28;20040;-86
2022/03/16 03:16:54;;;;;;;29.33;19.50;;;;;;;3.36;89.68;102339.72;5072737;28;20088;-86
2022/03/16 03:19:23;;;;;;;28.05;20.05;;;;;;;3.36;89.30;102331.84;5056137;28;20040;-86
2022/03/16 03:21:49;;;;;;;31.30;19.77;;;;;;;3.35;89.24;102325.75;5038081;28;20044;-86
2022/03/16 03:24:14;;;;;;;33.53;21.45;;;;;;;3.39;89.48;102334.59;5036935;28;20213;-85
2022/03/16 03:26:40;;;;;;;35.45;21.63;;;;;;;3.39;89.32;102334.59;5071076;28;20040;-85
2022/03/16 03:29:06;;;;;;;29.63;20.85;;;;;;;3.37;89.19;102336.28;5053339;28;20151;-86
2022/03/16 03:31:32;;;;;;;29.80;20.55;;;;;;;3.36;89.50;102335.41;5086883;28;20036;-86
2022/03/16 03:33:57;;;;;;;30.20;21.17;;;;;;;3.35;89.15;102330.97;5072883;28;20456;-85
2022/03/16 03:36:23;;;;;;;28.15;20.45;;;;;;;3.37;89.45;102341.50;5057440;28;20020;-85
2022/03/16 03:38:49;;;;;;;30.67;19.05;;;;;;;3.31;89.27;102334.31;5074020;28;20036;-86
2022/03/16 03:41:14;;;;;;;28.77;19.80;;;;;;;3.34;88.90;102341.38;5073878;28;20048;-85
2022/03/16 03:43:40;;;;;;;29.15;19.83;;;;;;;3.33;88.88;102342.25;5073675;28;20040;-86
2022/03/16 03:46:06;;;;;;;31.08;20.50;;;;;;;3.33;89.89;102342.25;5072860;28;20028;-85
2022/03/16 03:48:31;;;;;;;28.92;20.75;;;;;;;3.31;89.40;102336.94;5072996;28;20081;-86
2022/03/16 03:50:57;;;;;;;33.20;22.05;;;;;;;3.30;89.98;102340.41;5091317;28;20398;-86
2022/03/16 03:53:22;;;;;;;32.85;22.38;;;;;;;3.27;89.60;102340.34;5090986;28;20123;-84
2022/03/16 03:55:48;;;;;;;30.50;21.40;;;;;;;3.28;89.56;102344.72;5073240;28;20043;-85
2022/03/16 03:58:13;;;;;;;27.65;19.63;;;;;;;3.26;89.74;102335.03;5055894;28;20166;-86
2022/03/16 04:00:39;;;;;;;30.17;20.75;;;;;;;3.26;90.23;102341.16;5056433;28;20050;-86
2022/03/16 04:03:04;;;;;;;27.45;20.40;;;;;;;3.24;90.30;102345.47;5038475;28;20079;-86
2022/03/16 04:05:30;;;;;;;28.63;21.15;;;;;;;3.22;90.07;102348.03;5072732;28;20028;-86
2022/03/16 04:07:56;;;;;;;27.10;20.00;;;;;;;3.21;90.15;102335.78;5039301;28;20036;-85
2022/03/16 04:10:22;;;;;;;31.55;22.05;;;;;;;3.21;90.36;102338.41;5056231;28;20065;-85
2022/03/16 04:12:48;;;;;;;30.63;21.13;;;;;;;3.22;89.72;102339.28;5034582;28;20493;-86
2022/03/16 04:15:13;;;;;;;31.33;21.67;;;;;;;3.21;90.00;102337.50;5076953;28;20539;-86
2022/03/16 04:17:39;;;;;;;27.20;20.75;;;;;;;3.20;89.98;102340.97;5073314;28;20033;-86
2022/03/16 04:20:06;;;;;;;30.42;21.92;;;;;;;3.22;90.04;102344.53;5039973;28;20037;-86
2022/03/16 04:22:31;;;;;;;33.20;22.35;;;;;;;3.19;90.03;102345.31;5072771;28;20044;-86
2022/03/16 04:24:57;;;;;;;33.65;21.25;;;;;;;3.19;90.46;102344.41;5039839;28;20101;-85
2022/03/16 04:27:23;;;;;;;31.77;21.88;;;;;;;3.17;90.40;102344.38;5056375;28;20110;-86
2022/03/16 04:29:49;;;;;;;31.08;22.48;;;;;;;3.14;90.29;102336.44;5059330;28;20096;-82
2022/03/16 04:32:14;;;;;;;28.48;20.67;;;;;;;3.16;90.18;102336.47;5075854;28;20047;-81
2022/03/16 04:34:39;;;;;;;34.53;23.23;;;;;;;3.14;90.37;102338.13;5093031;28;20075;-81
2022/03/16 04:37:05;;;;;;;32.65;22.98;;;;;;;3.15;90.31;102339.94;5075683;28;20127;-81
2022/03/16 04:39:31;;;;;;;33.13;22.52;;;;;;;3.13;90.90;102336.38;5076125;28;20072;-81
2022/03/16 04:41:57;;;;;;;38.63;23.40;;;;;;;3.14;91.14;102335.50;5058863;28;20130;-81
2022/03/16 04:44:22;;;;;;;35.60;23.35;;;;;;;3.15;91.16;102335.56;5072332;28;20132;-81
2022/03/16 04:46:48;;;;;;;32.25;22.67;;;;;;;3.15;90.59;102326.84;5055285;28;20039;-81
2022/03/16 04:49:14;;;;;;;31.95;23.50;;;;;;;3.16;90.86;102331.22;5054224;28;20075;-81
2022/03/16 04:51:40;;;;;;;30.25;21.73;;;;;;;3.16;91.31;102333.84;5055336;28;20032;-81
2022/03/16 04:54:07;;;;;;;33.53;23.13;;;;;;;3.15;90.45;102334.69;5055447;28;20400;-81
2022/03/16 04:56:36;;;;;;;35.03;24.23;;;;;;;3.13;90.90;102329.41;5038801;28;20151;-81
2022/03/16 04:59:02;;;;;;;31.52;22.77;;;;;;;3.16;91.34;102329.50;5055304;28;20040;-82
2022/03/16 05:01:28;;;;;;;33.78;23.30;;;;;;;3.17;91.52;102331.28;5055302;28;20127;-81
2022/03/16 05:03:53;;;;;;;32.03;22.85;;;;;;;3.18;91.22;102319.09;5073333;28;20174;-81
2022/03/16 05:06:19;;;;;;;32.42;23.65;;;;;;;3.20;91.82;102325.25;5038554;28;20122;-81
2022/03/16 05:08:47;;;;;;;31.65;22.88;;;;;;;3.18;91.77;102325.19;5055281;28;20033;-82
2022/03/16 05:11:14;;;;;;;36.50;25.58;;;;;;;3.20;91.78;102325.25;5071965;28;20040;-82
2022/03/16 05:13:39;;;;;;;32.50;24.00;;;;;;;3.19;91.91;102313.91;5088070;28;20067;-82
2022/03/16 05:16:06;;;;;;;33.95;23.25;;;;;;;3.20;92.34;102315.66;5058113;28;20476;-82
2022/03/16 05:18:33;;;;;;;33.42;23.08;;;;;;;3.18;91.53;102319.09;5091778;28;20395;-82
2022/03/16 05:21:00;;;;;;;36.00;24.63;;;;;;;3.21;91.87;102327.94;5075483;28;20134;-83
2022/03/16 05:23:25;;;;;;;37.08;24.25;;;;;;;3.21;92.06;102334.88;5048266;28;20032;-83
2022/03/16 05:25:52;;;;;;;37.55;24.60;;;;;;;3.17;92.25;102331.28;5068328;28;20503;-82
2022/03/16 05:28:17;;;;;;;37.28;24.30;;;;;;;3.18;91.23;102337.41;5037817;28;20032;-83
2022/03/16 05:30:44;;;;;;;36.78;25.35;;;;;;;3.18;92.13;102332.16;5075609;28;20318;-83
2022/03/16 05:33:09;;;;;;;34.20;23.20;;;;;;;3.14;91.62;102328.56;5053928;28;20056;-82
2022/03/16 05:35:35;;;;;;;38.72;23.52;;;;;;;3.15;91.36;102324.22;5069515;28;20032;-81
2022/03/16 05:38:02;;;;;;;36.80;22.20;;;;;;;3.13;91.13;102321.53;5039689;28;20098;-80
2022/03/16 05:40:28;;;;;;;32.38;21.88;;;;;;;3.12;91.22;102317.16;5068313;28;20045;-80
2022/03/16 05:42:53;;;;;;;35.47;22.55;;;;;;;3.14;91.60;102315.50;5039020;28;20035;-81
2022/03/16 05:45:19;;;;;;;29.90;20.90;;;;;;;3.15;91.43;102313.75;5042626;28;20112;-81
2022/03/16 05:47:44;;;;;;;39.58;22.40;;;;;;;3.12;91.77;102314.53;5053408;28;20116;-80
2022/03/16 05:50:10;;;;;;;28.27;19.48;;;;;;;3.15;90.85;102313.75;5070937;28;20032;-81
2022/03/16 05:52:36;;;;;;;28.88;19.73;;;;;;;3.14;91.12;102315.50;5074192;28;20305;-80
2022/03/16 05:55:02;;;;;;;36.83;20.40;;;;;;;3.16;91.31;102326.00;5069644;28;20456;-80
2022/03/16 05:57:28;;;;;;;34.30;21.40;;;;;;;3.17;90.98;102314.69;5051153;28;20184;-81
2022/03/16 05:59:53;;;;;;;30.10;19.58;;;;;;;3.20;91.48;102318.28;5051747;28;20325;-81
2022/03/16 06:02:19;;;;;;;29.55;20.08;;;;;;;3.20;91.17;102323.53;5069350;28;20041;-81
2022/03/16 06:04:44;;;;;;;31.27;19.40;;;;;;;3.22;91.91;102321.84;5074308;28;20116;-80
2022/03/16 06:07:12;;;;;;;30.23;19.17;;;;;;;3.26;91.20;102316.69;5070368;28;20033;-81
2022/03/16 06:09:38;;;;;;;29.98;19.30;;;;;;;3.26;91.54;102322.81;5055614;28;20029;-80
2022/03/16 06:12:04;;;;;;;37.35;19.42;;;;;;;3.30;91.70;102332.56;5081094;28;20201;-81
2022/03/16 06:14:33;;;;;;;29.40;19.13;;;;;;;3.36;91.60;102337.09;5052431;28;20520;-81
2022/03/16 06:16:58;;;;;;;26.52;16.55;;;;;;;3.39;91.07;102335.47;5045616;28;20569;-81
2022/03/16 06:19:24;;;;;;;28.75;17.42;;;;;;;3.43;91.63;102339.06;5069413;28;20203;-81
2022/03/16 06:21:50;;;;;;;26.13;16.92;;;;;;;3.44;90.87;102335.63;5067247;28;20063;-80
2022/03/16 06:24:16;;;;;;;28.20;17.65;;;;;;;3.47;90.81;102340.97;5059793;28;20067;-81
2022/03/16 06:26:42;;;;;;;24.08;16.20;;;;;;;3.49;90.62;102344.53;5058554;28;20027;-80
2022/03/16 06:29:07;;;;;;;25.90;16.77;;;;;;;3.52;90.78;102344.59;5076352;28;20512;-80
2022/03/16 06:31:33;;;;;;;23.30;16.02;;;;;;;3.54;90.80;102347.28;5053477;28;20115;-80
2022/03/16 06:33:59;;;;;;;25.20;17.00;;;;;;;3.58;90.47;102350.03;5070426;28;20033;-80
2022/03/16 06:36:26;;;;;;;26.58;15.90;;;;;;;3.61;90.93;102349.22;5045426;28;20054;-80
2022/03/16 06:38:55;;;;;;;24.80;16.38;;;;;;;3.64;90.50;102352.84;5090277;28;20044;-81
2022/03/16 06:41:22;;;;;;;27.00;15.27;;;;;;;3.70;90.66;102346.00;5091713;28;20036;-81
2022/03/16 06:43:47;;;;;;;21.83;14.45;;;;;;;3.75;90.83;102345.31;5057102;28;20125;-81
2022/03/16 06:46:13;;;;;;;29.83;15.98;;;;;;;3.78;90.43;102352.38;5073445;28;20047;-80
2022/03/16 06:48:39;;;;;;;22.85;14.93;;;;;;;3.78;90.36;102349.75;5056911;28;20059;-81
2022/03/16 06:51:05;;;;;;;26.48;15.23;;;;;;;3.82;90.04;102343.75;5056834;28;20036;-81
2022/03/16 06:53:30;;;;;;;21.10;14.82;;;;;;;3.86;90.13;102350.88;5056812;28;20367;-81
2022/03/16 06:55:56;;;;;;;20.70;13.73;;;;;;;3.91;90.24;102337.88;5057025;28;20032;-82
2022/03/16 06:58:22;;;;;;;21.10;14.70;;;;;;;3.96;90.02;102336.31;5055725;28;20048;-81
2022/03/16 07:00:48;;;;;;;24.58;13.57;;;;;;;4.03;90.19;102330.38;5056967;28;20111;-81
2022/03/16 07:03:13;;;;;;;18.92;12.75;;;;;;;4.08;90.09;102323.56;5073167;28;20043;-81
2022/03/16 07:05:41;;;;;;;19.98;12.82;;;;;;;4.15;89.95;102320.25;5056625;28;20475;-81
2022/03/16 07:08:09;;;;;;;18.77;13.27;;;;;;;4.22;90.18;102321.31;5091780;28;20035;-81
2022/03/16 07:10:37;;;;;;;19.48;13.27;;;;;;;4.27;89.94;102312.72;5091496;28;20109;-81
2022/03/16 07:13:03;;;;;;;20.85;13.00;;;;;;;4.36;89.93;102312.09;5084984;28;20028;-81
2022/03/16 07:15:33;;;;;;;18.75;13.25;;;;;;;4.44;89.50;102307.94;5070246;28;20451;-82
2022/03/16 07:18:01;;;;;;;18.05;11.88;;;;;;;4.53;89.39;102309.94;5059878;28;20047;-82
2022/03/16 07:20:28;;;;;;;21.73;12.80;;;;;;;4.64;89.31;102310.22;5073009;28;20055;-82
2022/03/16 07:23:03;;;;;;;19.80;12.23;;;;;;;4.73;88.15;102307.84;5056176;28;20317;-82
2022/03/16 07:25:29;;;;;;;21.20;12.48;;;;;;;4.87;89.05;102302.91;5073181;28;20032;-82
2022/03/16 07:27:54;;;;;;;19.60;11.95;;;;;;;4.99;88.33;102299.72;5072923;28;20039;-82
2022/03/16 07:30:20;;;;;;;18.40;12.43;;;;;;;5.07;88.25;102291.19;5069481;28;20040;-81
2022/03/16 07:32:46;;;;;;;19.33;12.65;;;;;;;5.20;87.93;102294.09;5052728;28;20044;-82
2022/03/16 07:35:11;;;;;;;17.45;11.93;;;;;;;5.30;87.01;102288.22;5052616;28;20036;-82
2022/03/16 07:37:44;;;;;;;18.85;11.98;;;;;;;5.37;86.53;102274.38;5052526;28;20028;-82
2022/03/16 07:40:10;;;;;;;18.13;11.00;;;;;;;5.46;85.41;102286.81;5052649;28;20043;-81
2022/03/16 07:42:36;;;;;;;17.80;11.85;;;;;;;5.54;86.11;102273.00;5069051;28;20033;-82
2022/03/16 07:45:04;;;;;;;17.33;12.07;;;;;;;5.66;84.56;102274.97;5062842;28;20058;-83
2022/03/16 07:47:29;;;;;;;15.50;10.50;;;;;;;5.77;84.44;102283.13;5055297;28;20544;-82
2022/03/16 07:49:56;;;;;;;16.63;11.50;;;;;;;5.84;83.59;102282.38;5072126;28;20035;-82
2022/03/16 07:52:23;;;;;;;17.40;10.88;;;;;;;5.92;83.47;102279.91;5056345;28;20050;-82
2022/03/16 07:54:49;;;;;;;18.90;11.68;;;;;;;5.99;82.94;102268.69;5072617;28;20047;-83
2022/03/16 07:57:16;;;;;;;16.55;10.65;;;;;;;6.08;82.86;102278.50;5072341;28;20048;-82
2022/03/16 07:59:44;;;;;;;17.17;10.77;;;;;;;6.16;82.81;102264.66;5072904;28;20514;-82
2022/03/16 08:02:09;;;;;;;16.35;11.30;;;;;;;6.28;82.55;102278.88;5056012;28;20032;-83
2022/03/16 08:04:35;;;;;;;15.70;11.10;;;;;;;6.35;81.78;102264.97;5072539;28;20036;-82
2022/03/16 08:07:00;;;;;;;16.00;11.30;;;;;;;6.41;81.72;102278.28;5055479;28;20336;-83
2022/03/16 08:09:26;;;;;;;17.20;10.40;;;;;;;6.47;80.91;102268.72;5089000;28;20498;-83
2022/03/16 08:11:51;;;;;;;15.05;10.77;;;;;;;6.52;80.63;102274.06;5033187;28;20021;-83
2022/03/16 08:14:17;;;;;;;16.67;11.35;;;;;;;6.55;80.22;102271.50;5041831;28;20033;-83
2022/03/16 08:16:42;;;;;;;17.00;10.95;;;;;;;6.64;80.36;102278.66;5034278;28;20427;-83
2022/03/16 08:19:08;;;;;;;15.27;10.55;;;;;;;6.74;80.08;102285.84;5035357;28;20138;-83
2022/03/16 08:21:33;;;;;;;14.43;10.43;;;;;;;6.85;78.80;102280.78;5052049;28;20111;-83
2022/03/16 08:23:59;;;;;;;17.20;11.70;;;;;;;6.91;79.04;102277.38;5019351;28;20139;-82
2022/03/16 08:26:25;;;;;;;17.73;11.30;;;;;;;6.94;79.17;102272.13;5035420;28;20056;-84
2022/03/16 08:28:51;;;;;;;15.48;10.98;;;;;;;6.92;78.62;102274.75;5035429;28;20059;-83
2022/03/16 08:31:17;;;;;;;15.45;11.40;;;;;;;6.93;78.20;102270.38;5068385;28;20111;-83
2022/03/16 08:33:43;;;;;;;15.05;10.40;;;;;;;6.96;77.76;102271.31;5071890;28;20028;-84
2022/03/16 08:36:09;;;;;;;19.52;11.63;;;;;;;7.04;78.32;102272.31;5072237;28;20084;-84
2022/03/16 08:38:38;;;;;;;15.40;11.35;;;;;;;7.14;78.00;102269.81;5088860;28;20120;-84
2022/03/16 08:41:05;;;;;;;29.23;12.43;;;;;;;7.25;77.58;102269.13;5072298;28;20133;-83
2022/03/16 08:43:31;;;;;;;22.05;13.07;;;;;;;7.41;77.55;102264.94;5071761;28;20115;-84
2022/03/16 08:45:58;;;;;;;21.08;11.88;;;;;;;7.53;76.43;102264.22;5070485;28;20119;-84
2022/03/16 08:48:24;;;;;;;18.38;11.23;;;;;;;7.67;75.83;102264.44;5051500;28;20040;-85
2022/03/16 08:50:50;;;;;;;16.42;10.43;;;;;;;7.75;74.96;102270.69;5052078;28;20086;-84
2022/03/16 08:53:16;;;;;;;15.30;10.13;;;;;;;7.85;74.77;102274.31;5051944;28;20040;-84
2022/03/16 08:55:41;;;;;;;17.10;11.50;;;;;;;7.95;74.92;102273.56;5051976;28;20036;-83
2022/03/16 08:58:07;;;;;;;16.50;10.75;;;;;;;8.07;74.36;102270.19;5069992;28;20044;-84
2022/03/16 09:00:32;;;;;;;19.70;12.27;;;;;;;8.16;73.33;102268.53;5036855;28;20036;-84
2022/03/16 09:02:58;;;;;;;18.23;11.90;;;;;;;8.26;73.21;102277.44;5055549;28;20051;-83
2022/03/16 09:05:23;;;;;;;16.77;12.30;;;;;;;8.36;73.82;102278.41;5038807;28;20032;-84
2022/03/16 09:07:50;;;;;;;16.08;11.80;;;;;;;8.49;73.21;102277.69;5038414;28;20086;-84
2022/03/16 09:10:15;;;;;;;16.60;10.30;;;;;;;8.59;72.42;102271.63;5039073;28;20063;-83
2022/03/16 09:12:42;;;;;;;16.27;11.25;;;;;;;8.70;71.83;102277.00;5067659;28;20107;-84
2022/03/16 09:15:07;;;;;;;18.48;11.95;;;;;;;8.78;71.23;102277.97;5041501;28;20089;-84
2022/03/16 09:17:34;;;;;;;17.38;12.85;;;;;;;8.92;71.77;102274.53;5075504;28;20119;-84
2022/03/16 09:20:00;;;;;;;17.90;12.27;;;;;;;9.05;70.46;102271.13;5075429;28;20040;-84
2022/03/16 09:22:26;;;;;;;19.75;12.40;;;;;;;9.17;70.67;102257.09;5058264;28;20065;-84
2022/03/16 09:24:52;;;;;;;15.02;11.18;;;;;;;9.30;69.69;102256.31;5075406;28;20436;-84
2022/03/16 09:27:17;;;;;;;17.35;12.30;;;;;;;9.42;68.89;102260.78;5058369;28;20332;-84
2022/03/16 09:29:46;;;;;;;17.65;11.43;;;;;;;9.50;67.90;102263.50;5058222;28;20027;-86
2022/03/16 09:32:13;;;;;;;19.08;11.98;;;;;;;9.57;68.61;102255.59;5058588;28;20036;-85
2022/03/16 09:34:40;;;;;;;31.42;14.18;;;;;;;9.68;67.88;102261.81;5092889;28;20497;-85
2022/03/16 09:37:08;;;;;;;21.88;12.82;;;;;;;9.80;67.32;102255.69;5093266;28;20056;-84
2022/03/16 09:39:34;;;;;;;17.73;11.68;;;;;;;9.92;66.77;102256.63;5074966;28;20192;-84
2022/03/16 09:42:00;;;;;;;30.20;13.57;;;;;;;10.06;66.71;102263.72;5074730;28;20071;-84
2022/03/16 09:44:28;;;;;;;31.30;14.05;;;;;;;10.10;66.33;102251.38;5052392;28;20048;-85
2022/03/16 09:46:56;;;;;;;18.73;12.30;;;;;;;10.24;65.42;102259.38;5038192;28;20028;-84
2022/03/16 09:49:23;;;;;;;17.88;12.32;;;;;;;10.28;64.79;102254.09;5071684;28;20055;-85
2022/03/16 09:51:50;;;;;;;19.17;11.32;;;;;;;10.40;64.78;102247.94;5071201;28;20044;-84
2022/03/16 09:54:16;;;;;;;21.10;11.80;;;;;;;10.41;63.66;102256.75;5054619;28;20040;-84
2022/03/16 09:56:43;;;;;;;17.27;11.60;;;;;;;10.42;63.79;102262.06;5072386;28;20417;-84
2022/03/16 09:59:10;;;;;;;30.00;12.30;;;;;;;10.50;64.95;102247.06;5071809;28;20044;-84
2022/03/16 10:01:36;;;;;;;19.05;12.15;;;;;;;10.62;63.78;102242.66;5037884;28;20337;-84
2022/03/16 10:04:06;;;;;;;18.33;12.07;;;;;;;10.67;63.36;102236.47;5039143;28;20032;-84
2022/03/16 10:06:35;;;;;;;22.70;11.65;;;;;;;10.74;63.20;102246.19;5074740;28;20093;-84
2022/03/16 10:15:01;;;;;;;19.23;12.18;;;;;;;11.00;62.75;102237.34;5069340;28;20040;-84
2022/03/16 10:17:44;;;;;;;17.30;11.50;;;;;;;11.08;62.02;102235.56;5087823;28;20561;-84
2022/03/16 10:20:22;;;;;;;17.67;11.68;;;;;;;11.19;62.72;102241.72;5056704;28;20045;-84
2022/03/16 10:23:04;;;;;;;17.75;12.48;;;;;;;11.34;62.17;102234.63;5070749;28;20036;-84
2022/03/16 10:25:34;;;;;;;23.27;11.50;;;;;;;11.42;60.71;102238.13;5054383;28;20037;-84
2022/03/16 10:28:10;;;;;;;16.33;11.63;;;;;;;11.53;61.77;102246.06;5053810;28;20031;-86
2022/03/16 10:31:00;;;;;;;16.45;11.50;;;;;;;11.64;61.95;102238.94;5065075;28;20120;-84
2022/03/16 10:33:34;;;;;;;18.17;11.73;;;;;;;11.78;61.40;102230.94;5074027;28;20027;-84
2022/03/16 10:36:08;;;;;;;17.85;11.55;;;;;;;11.88;60.03;102239.75;5090718;28;20142;-84
2022/03/16 10:38:46;;;;;;;16.88;12.48;;;;;;;11.93;60.97;102232.66;5092147;28;20093;-84
2022/03/16 10:46:54;;;;;;;17.88;12.30;;;;;;;12.24;59.68;102226.28;5076402;28;20040;-84
2022/03/16 10:49:22;;;;;;;17.92;12.48;;;;;;;12.35;59.33;102225.31;5073631;28;20066;-84
2022/03/16 10:52:01;;;;;;;17.48;11.88;;;;;;;12.44;59.43;102220.81;5073966;28;20036;-84
2022/03/16 10:54:28;;;;;;;17.45;11.48;;;;;;;12.54;58.70;102211.00;5092023;28;20397;-84
2022/03/16 10:56:55;;;;;;;20.25;12.90;;;;;;;12.64;59.24;102203.84;5056530;28;20047;-84
2022/03/16 10:59:26;;;;;;;24.30;14.82;;;;;;;12.87;59.21;102199.19;5091916;28;20038;-84
2022/03/16 11:01:53;;;;;;;15.88;12.73;;;;;;;12.99;58.43;102198.19;5073288;28;20145;-83
2022/03/16 11:04:20;;;;;;;18.70;11.60;;;;;;;13.10;58.34;102193.66;5056623;28;20032;-84
2022/03/16 11:06:47;;;;;;;15.35;11.80;;;;;;;13.16;56.75;102198.00;5056500;28;20101;-83
2022/03/16 11:09:15;;;;;;;14.90;11.63;;;;;;;13.19;57.00;102207.72;5073295;28;20040;-84
2022/03/16 11:14:27;;;;;;;17.05;12.00;;;;;;;13.34;56.13;102189.84;5064747;28;20055;-84
2022/03/16 11:16:53;;;;;;;13.88;11.02;;;;;;;13.23;56.66;102196.13;5072544;28;20040;-85
2022/03/16 11:19:19;;;;;;;16.67;10.85;;;;;;;13.17;56.52;102205.06;5053853;28;20025;-84
2022/03/16 11:21:59;;;;;;;14.20;10.65;;;;;;;13.17;57.61;102212.19;5036441;28;20037;-84
2022/03/16 11:24:29;;;;;;;16.55;11.50;;;;;;;13.09;57.13;102202.50;5052372;28;20032;-84
2022/03/16 11:27:34;;;;;;;17.80;11.52;;;;;;;13.10;58.34;102206.03;5069347;28;20112;-83
2022/03/16 11:30:33;;;;;;;15.63;11.02;;;;;;;13.27;58.64;102212.09;5042031;28;20055;-83